Time;durP1;ratioP1;P1;durP2;ratioP2;P2;SDS_P1;SDS_P2;PMS_P1;PMS_P2;Temp;Humidity;BMP_temperature;BMP_pressure;BME280_temperature;BME280_humidity;BME280_pressure;Samples;Min_cycle;Max_cycle;Signal;HPM_P1;HPM_P2
2022/02/26 00:01:26;;;;;;;34.00;13.43;;;;;;;-0.97;100.00;103267.22;5223986;28;20721;-70
2022/02/26 00:03:56;;;;;;;37.65;12.20;;;;;;;-1.04;100.00;103261.22;5222994;28;20402;-70
2022/02/26 00:06:27;;;;;;;45.00;14.07;;;;;;;-1.16;100.00;103270.22;5210994;28;20025;-69
2022/02/26 00:08:57;;;;;;;42.22;13.80;;;;;;;-1.23;100.00;103273.03;5223639;28;20031;-69
2022/02/26 00:11:28;;;;;;;40.53;14.80;;;;;;;-1.29;100.00;103267.91;5223445;28;20390;-69
2022/02/26 00:13:58;;;;;;;47.05;14.52;;;;;;;-1.37;100.00;103266.28;5222425;28;20039;-69
2022/02/26 00:16:29;;;;;;;45.47;14.88;;;;;;;-1.41;100.00;103266.34;5222738;28;20047;-69
2022/02/26 00:19:00;;;;;;;41.15;12.98;;;;;;;-1.48;100.00;103273.53;5223110;28;20025;-69
2022/02/26 00:21:30;;;;;;;42.42;14.30;;;;;;;-1.50;100.00;103274.47;5223074;28;20078;-69
2022/02/26 00:24:01;;;;;;;56.40;15.65;;;;;;;-1.52;100.00;103282.38;5222770;28;20029;-69
2022/02/26 00:26:32;;;;;;;41.30;15.55;;;;;;;-1.54;100.00;103284.19;5221467;28;20017;-69
2022/02/26 00:29:03;;;;;;;43.58;15.50;;;;;;;-1.52;100.00;103286.78;5222684;28;20029;-69
2022/02/26 00:31:34;;;;;;;46.88;17.13;;;;;;;-1.51;100.00;103289.34;5222967;28;20013;-69
2022/02/26 00:34:04;;;;;;;53.03;15.82;;;;;;;-1.49;100.00;103292.84;5255107;28;20035;-69
2022/02/26 00:36:35;;;;;;;45.17;16.63;;;;;;;-1.47;100.00;103290.19;5222368;28;20031;-69
2022/02/26 00:39:05;;;;;;;48.50;15.95;;;;;;;-1.44;100.00;103303.31;5223237;28;20024;-69
2022/02/26 00:41:36;;;;;;;49.00;15.25;;;;;;;-1.46;100.00;103303.31;5222175;28;20501;-69
2022/02/26 00:44:06;;;;;;;54.35;17.65;;;;;;;-1.46;100.00;103305.06;5221487;28;20559;-69
2022/02/26 00:46:37;;;;;;;50.40;16.40;;;;;;;-1.49;100.00;103310.41;5222506;28;20716;-69
2022/02/26 00:51:57;;;;;;;45.40;15.32;;;;;;;-1.55;100.00;103316.66;5222174;28;20439;-69
2022/02/26 00:54:27;;;;;;;51.05;15.45;;;;;;;-1.58;100.00;103316.72;5222653;28;20024;-69
2022/02/26 00:56:58;;;;;;;43.13;15.98;;;;;;;-1.58;100.00;103312.31;5222728;28;20028;-69
2022/02/26 00:59:28;;;;;;;55.83;19.08;;;;;;;-1.59;100.00;103314.97;5222515;28;20655;-69
2022/02/26 01:01:59;;;;;;;52.22;16.05;;;;;;;-1.59;100.00;103321.13;5222312;28;20025;-69
2022/02/26 01:04:30;;;;;;;41.20;16.38;;;;;;;-1.59;100.00;103325.50;5222140;28;20248;-69
2022/02/26 01:07:00;;;;;;;56.17;18.40;;;;;;;-1.60;100.00;103332.53;5222161;28;20017;-70
2022/02/26 01:09:31;;;;;;;45.67;15.82;;;;;;;-1.61;100.00;103329.91;5222151;28;20024;-70
2022/02/26 01:12:03;;;;;;;35.88;15.07;;;;;;;-1.62;100.00;103329.06;5221894;28;20021;-70
2022/02/26 01:14:35;;;;;;;36.10;16.05;;;;;;;-1.62;100.00;103336.09;5221919;28;20039;-70
2022/02/26 01:17:07;;;;;;;40.75;14.43;;;;;;;-1.64;100.00;103336.13;5222006;28;20467;-70
2022/02/26 01:19:39;;;;;;;54.58;16.42;;;;;;;-1.66;100.00;103337.88;5221838;28;20029;-70
2022/02/26 01:22:10;;;;;;;49.58;16.50;;;;;;;-1.66;100.00;103342.28;5221602;28;20017;-69
2022/02/26 01:24:41;;;;;;;42.78;15.77;;;;;;;-1.69;100.00;103330.06;5221667;28;20025;-69
2022/02/26 01:27:11;;;;;;;41.55;17.17;;;;;;;-1.69;100.00;103334.47;5221521;28;20166;-69
2022/02/26 01:29:42;;;;;;;44.85;15.35;;;;;;;-1.71;100.00;103338.88;5221755;28;20375;-69
2022/02/26 01:32:12;;;;;;;48.30;15.40;;;;;;;-1.75;100.00;103327.56;5222033;28;20033;-68
2022/02/26 01:34:43;;;;;;;40.72;13.57;;;;;;;-1.77;100.00;103328.44;5221583;28;20044;-69
2022/02/26 01:37:14;;;;;;;43.30;15.75;;;;;;;-1.79;100.00;103327.63;5221681;28;20017;-69
2022/02/26 01:39:44;;;;;;;50.78;16.38;;;;;;;-1.82;100.00;103324.13;5221646;28;20394;-69
2022/02/26 01:42:17;;;;;;;70.82;17.67;;;;;;;-1.86;100.00;103319.84;5221957;28;20055;-69
2022/02/26 01:44:49;;;;;;;62.25;15.63;;;;;;;-1.90;100.00;103317.28;5221391;28;20029;-69
2022/02/26 01:47:21;;;;;;;47.83;13.55;;;;;;;-1.93;100.00;103333.97;5221858;28;20393;-69
2022/02/26 01:49:51;;;;;;;40.60;14.40;;;;;;;-1.98;100.00;103333.19;5222085;28;20025;-69
2022/02/26 01:52:22;;;;;;;42.35;15.25;;;;;;;-1.98;100.00;103312.13;5221077;28;20040;-69
2022/02/26 01:54:52;;;;;;;46.53;16.35;;;;;;;-1.95;100.00;103306.84;5221508;28;20024;-69
2022/02/26 01:57:23;;;;;;;44.55;15.30;;;;;;;-1.93;100.00;103309.44;5221372;28;20035;-69
2022/02/26 01:59:54;;;;;;;62.10;17.40;;;;;;;-1.94;100.00;103311.19;5221460;28;20025;-69
2022/02/26 02:02:24;;;;;;;53.50;17.08;;;;;;;-1.97;100.00;103302.47;5221635;28;20078;-69
2022/02/26 02:04:55;;;;;;;51.85;17.13;;;;;;;-2.00;100.00;103305.19;5220403;28;20033;-68
2022/02/26 02:07:38;;;;;;;54.15;18.80;;;;;;;-2.01;100.00;103300.78;5222226;28;20387;-69
2022/02/26 02:10:08;;;;;;;61.65;18.15;;;;;;;-2.01;100.00;103292.91;5222321;28;20032;-68
2022/02/26 02:12:40;;;;;;;53.75;17.52;;;;;;;-2.03;100.00;103294.69;5221527;28;20037;-68
2022/02/26 02:15:11;;;;;;;44.85;16.95;;;;;;;-2.04;100.00;103293.84;5221377;28;20104;-68
2022/02/26 02:17:43;;;;;;;38.10;15.48;;;;;;;-2.06;100.00;103308.75;5221746;28;20039;-68
2022/02/26 02:20:13;;;;;;;37.10;14.88;;;;;;;-2.06;100.00;103314.00;5222015;28;20442;-68
2022/02/26 02:22:52;;;;;;;33.83;15.23;;;;;;;-2.08;100.00;103305.28;5221889;28;20039;-69
2022/02/26 02:25:27;;;;;;;61.00;19.60;;;;;;;-2.07;100.00;103291.22;5221198;28;20390;-68
2022/02/26 02:27:58;;;;;;;56.88;19.08;;;;;;;-2.04;100.00;103295.59;5221566;28;20251;-68
2022/02/26 02:30:29;;;;;;;51.90;16.17;;;;;;;-2.04;100.00;103300.84;5253952;28;20083;-68
2022/02/26 02:33:01;;;;;;;51.60;16.30;;;;;;;-2.04;100.00;103320.13;5221986;28;20609;-68
2022/02/26 02:35:36;;;;;;;45.88;15.93;;;;;;;-2.00;100.00;103313.94;5221311;28;20031;-68
2022/02/26 02:38:08;;;;;;;;;;;;;;;-1.95;100.00;103314.72;5223244;28;20444;-68
2022/02/26 02:40:41;;;;;;;56.20;17.70;;;;;;;-1.88;100.00;103311.09;5225526;28;20364;-68
2022/02/26 02:43:13;;;;;;;56.30;16.02;;;;;;;-1.79;100.00;103311.84;5225295;28;20076;-68
2022/02/26 02:45:44;;;;;;;43.55;15.60;;;;;;;-1.74;100.00;103326.66;5224161;28;20021;-68
2022/02/26 02:48:15;;;;;;;49.47;17.33;;;;;;;-1.68;100.00;103325.66;5225359;28;20043;-68
2022/02/26 02:50:46;;;;;;;48.83;16.83;;;;;;;-1.66;100.00;103334.41;5224792;28;20097;-68
2022/02/26 02:53:18;;;;;;;49.67;17.60;;;;;;;-1.67;100.00;103330.03;5225154;28;20025;-68
2022/02/26 02:55:50;;;;;;;58.95;16.45;;;;;;;-1.67;100.00;103335.28;5225038;28;20039;-69
2022/02/26 02:58:24;;;;;;;50.75;17.10;;;;;;;-1.71;100.00;103331.84;5225435;28;20094;-69
2022/02/26 03:00:57;;;;;;;49.38;16.05;;;;;;;-1.91;100.00;103318.16;5225018;28;20029;-69
2022/02/26 03:03:28;;;;;;;43.72;13.98;;;;;;;-2.00;100.00;103327.09;5225074;28;20017;-68
2022/02/26 03:05:59;;;;;;;39.22;16.05;;;;;;;-2.08;100.00;103324.56;5225259;28;20402;-68
2022/02/26 03:08:29;;;;;;;48.20;16.98;;;;;;;-2.16;100.00;103317.69;5225395;28;20021;-68
2022/02/26 03:11:02;;;;;;;50.60;15.85;;;;;;;-2.25;100.00;103318.72;5225114;28;20057;-68
2022/02/26 03:13:34;;;;;;;62.35;18.38;;;;;;;-2.27;100.00;103324.88;5224228;28;20060;-68
2022/02/26 03:16:05;;;;;;;63.78;19.13;;;;;;;-2.28;100.00;103336.28;5223549;28;20028;-68
2022/02/26 03:18:36;;;;;;;54.83;17.98;;;;;;;-2.30;100.00;103324.94;5224422;28;20040;-69
2022/02/26 03:21:06;;;;;;;50.22;17.88;;;;;;;-2.33;100.00;103327.59;5224709;28;20021;-68
2022/02/26 03:23:37;;;;;;;43.40;15.55;;;;;;;-2.34;100.00;103326.75;5224180;28;20082;-68
2022/02/26 03:26:07;;;;;;;70.40;19.38;;;;;;;-2.28;100.00;103328.41;5223805;28;20017;-68
2022/02/26 03:28:38;;;;;;;71.10;18.02;;;;;;;-2.28;100.00;103324.00;5224350;28;20044;-68
2022/02/26 03:31:08;;;;;;;45.38;17.23;;;;;;;-2.29;100.00;103324.91;5224692;28;20013;-68
2022/02/26 03:33:39;;;;;;;55.70;17.80;;;;;;;-2.27;100.00;103336.25;5224143;28;20521;-68
2022/02/26 03:36:09;;;;;;;62.30;18.50;;;;;;;-2.19;100.00;103344.91;5223043;28;20028;-68
2022/02/26 03:38:42;;;;;;;48.70;16.98;;;;;;;-1.98;100.00;103335.81;5223645;28;20029;-69
2022/02/26 03:41:14;;;;;;;52.05;17.75;;;;;;;-1.88;100.00;103341.78;5223964;28;20103;-68
2022/02/26 03:43:46;;;;;;;51.50;17.90;;;;;;;-1.90;100.00;103344.47;5224474;28;20021;-68
2022/02/26 03:46:16;;;;;;;53.58;15.63;;;;;;;-2.00;100.00;103342.88;5223857;28;20017;-69
2022/02/26 03:48:47;;;;;;;50.75;16.55;;;;;;;-2.07;100.00;103343.84;5223546;28;20017;-68
2022/02/26 03:51:17;;;;;;;64.07;17.05;;;;;;;-2.12;100.00;103346.53;5223255;28;20024;-68
2022/02/26 03:53:48;;;;;;;45.90;16.70;;;;;;;-2.19;100.00;103344.03;5224077;28;20020;-68
2022/02/26 03:56:18;;;;;;;43.17;15.65;;;;;;;-2.26;100.00;103351.16;5223514;28;20440;-69
2022/02/26 03:58:51;;;;;;;44.50;17.25;;;;;;;-2.32;100.00;103358.25;5223960;28;20052;-68
2022/02/26 04:01:22;;;;;;;42.10;17.00;;;;;;;-2.37;100.00;103360.94;5222998;28;20025;-68
2022/02/26 04:03:52;;;;;;;55.05;16.85;;;;;;;-2.43;100.00;103353.16;5223803;28;20032;-68
2022/02/26 04:06:23;;;;;;;45.83;17.17;;;;;;;-2.45;100.00;103355.81;5223220;28;20398;-69
2022/02/26 04:08:54;;;;;;;60.10;17.92;;;;;;;-2.44;100.00;103359.31;5223527;28;20035;-68
2022/02/26 04:11:24;;;;;;;56.25;18.40;;;;;;;-2.51;100.00;103361.16;5223624;28;20387;-68
2022/02/26 04:13:55;;;;;;;55.60;14.57;;;;;;;-2.56;100.00;103364.72;5222907;28;20090;-68
2022/02/26 04:16:25;;;;;;;46.13;16.08;;;;;;;-2.62;100.00;103370.94;5223124;28;20025;-68
2022/02/26 04:18:56;;;;;;;54.67;16.60;;;;;;;-2.65;100.00;103382.38;5223454;28;20104;-68
2022/02/26 04:21:28;;;;;;;53.08;15.90;;;;;;;-2.70;100.00;103389.44;5223783;28;20474;-68
2022/02/26 04:23:59;;;;;;;53.78;16.40;;;;;;;-2.69;100.00;103385.03;5223611;28;20082;-68
2022/02/26 04:26:30;;;;;;;57.42;16.20;;;;;;;-2.71;100.00;103386.81;5222624;28;20033;-68
2022/02/26 04:29:00;;;;;;;62.47;17.20;;;;;;;-2.72;100.00;103392.94;5223372;28;20029;-68
2022/02/26 04:31:31;;;;;;;56.58;16.35;;;;;;;-2.73;100.00;103402.59;5223477;28;20230;-68
2022/02/26 04:34:01;;;;;;;42.63;15.23;;;;;;;-2.77;100.00;103393.00;5223720;28;20082;-68
2022/02/26 04:36:32;;;;;;;45.55;14.70;;;;;;;-2.80;100.00;103393.06;5223148;28;20025;-68
2022/02/26 04:39:04;;;;;;;44.03;14.85;;;;;;;-2.84;100.00;103391.34;5223061;28;20706;-68
2022/02/26 04:41:35;;;;;;;50.92;14.38;;;;;;;-2.88;100.00;103393.13;5222917;28;20103;-68
2022/02/26 04:44:05;;;;;;;43.50;15.45;;;;;;;-2.93;100.00;103392.31;5223138;28;20442;-68
2022/02/26 04:46:36;;;;;;;48.05;15.23;;;;;;;-2.98;100.00;103401.13;5221786;28;20060;-68
2022/02/26 04:49:06;;;;;;;56.92;15.93;;;;;;;-2.99;100.00;103394.16;5222945;28;20043;-68
2022/02/26 04:51:37;;;;;;;46.55;16.60;;;;;;;-3.03;100.00;103398.56;5222319;28;20140;-68
2022/02/26 04:54:07;;;;;;;47.47;16.85;;;;;;;-3.05;100.00;103400.34;5222818;28;20023;-68
2022/02/26 04:56:38;;;;;;;49.42;15.65;;;;;;;-3.07;100.00;103398.59;5222706;28;20059;-68
2022/02/26 04:59:08;;;;;;;49.40;15.40;;;;;;;-3.08;100.00;103399.50;5222734;28;20040;-68
2022/02/26 05:01:39;;;;;;;47.30;15.27;;;;;;;-3.09;100.00;103398.63;5222324;28;20111;-68
2022/02/26 05:04:09;;;;;;;39.05;15.73;;;;;;;-3.07;100.00;103396.84;5221826;28;20586;-68
2022/02/26 05:06:40;;;;;;;51.20;17.23;;;;;;;-3.00;100.00;103398.53;5222576;28;20047;-70
2022/02/26 05:09:10;;;;;;;58.25;17.27;;;;;;;-2.96;100.00;103399.34;5222484;28;20478;-71
2022/02/26 05:11:41;;;;;;;53.38;17.30;;;;;;;-2.96;100.00;103392.38;5222356;28;20390;-68
2022/02/26 05:14:12;;;;;;;48.60;16.80;;;;;;;-2.97;100.00;103395.88;5221828;28;20712;-68
2022/02/26 05:16:44;;;;;;;54.35;17.27;;;;;;;-2.98;100.00;103394.13;5221796;28;20033;-68
2022/02/26 05:19:14;;;;;;;65.80;17.38;;;;;;;-3.00;100.00;103397.69;5222641;28;20121;-68
2022/02/26 05:21:44;;;;;;;49.55;16.65;;;;;;;-2.99;100.00;103400.28;5222627;28;20538;-68
2022/02/26 05:24:16;;;;;;;57.25;16.33;;;;;;;-3.01;100.00;103394.19;5222076;28;20021;-68
2022/02/26 05:26:46;;;;;;;49.53;17.35;;;;;;;-3.00;100.00;103388.03;5221966;28;20027;-69
2022/02/26 05:29:17;;;;;;;56.58;16.95;;;;;;;-3.00;100.00;103393.28;5221993;28;20553;-68
2022/02/26 05:31:47;;;;;;;55.45;16.05;;;;;;;-3.01;100.00;103396.81;5220980;28;20040;-68
2022/02/26 05:34:18;;;;;;;51.03;16.83;;;;;;;-3.03;100.00;103395.06;5221885;28;20043;-68
2022/02/26 05:36:48;;;;;;;55.90;15.10;;;;;;;-3.04;100.00;103396.84;5220538;28;20082;-68
2022/02/26 05:39:19;;;;;;;51.72;16.90;;;;;;;-3.00;100.00;103401.16;5221889;28;20021;-68
2022/02/26 05:41:50;;;;;;;51.03;15.80;;;;;;;-3.00;100.00;103401.16;5222232;28;20028;-68
2022/02/26 05:44:24;;;;;;;57.42;15.90;;;;;;;-3.03;100.00;103408.19;5221740;28;20020;-68
2022/02/26 05:46:54;;;;;;;39.35;16.90;;;;;;;-3.08;100.00;103397.75;5222057;28;20033;-68
2022/02/26 05:49:25;;;;;;;46.40;16.10;;;;;;;-3.09;100.00;103410.91;5221910;28;20025;-69
2022/02/26 05:51:55;;;;;;;41.45;16.17;;;;;;;-3.12;100.00;103403.91;5221419;28;20017;-69
2022/02/26 05:54:26;;;;;;;58.55;16.25;;;;;;;-3.12;100.00;103404.78;5221544;28;20071;-69
2022/02/26 05:56:56;;;;;;;47.75;14.90;;;;;;;-3.13;100.00;103404.81;5222023;28;20341;-69
2022/02/26 05:59:27;;;;;;;45.67;15.77;;;;;;;-3.15;100.00;103422.34;5221774;28;20036;-68
2022/02/26 06:01:57;;;;;;;35.38;13.95;;;;;;;-3.17;100.00;103417.09;5221715;28;20025;-68
2022/02/26 06:04:28;;;;;;;47.13;16.23;;;;;;;-3.18;100.00;103419.72;5221152;28;20032;-68
2022/02/26 06:06:58;;;;;;;41.60;14.65;;;;;;;-3.18;100.00;103419.72;5222083;28;20033;-68
2022/02/26 06:09:29;;;;;;;44.97;14.88;;;;;;;-3.20;100.00;103429.41;5221604;28;20053;-69
2022/02/26 06:11:59;;;;;;;44.90;14.27;;;;;;;-3.23;100.00;103439.91;5221461;28;20021;-68
2022/02/26 06:14:30;;;;;;;46.20;14.00;;;;;;;-3.25;100.00;103446.94;5225457;28;20037;-69
2022/02/26 06:17:00;;;;;;;35.78;14.45;;;;;;;-3.25;100.00;103439.94;5225477;28;20033;-69
2022/02/26 06:19:31;;;;;;;38.13;15.18;;;;;;;-3.25;100.00;103442.56;5225924;28;20394;-69
2022/02/26 06:22:01;;;;;;;49.80;15.73;;;;;;;-3.14;100.00;103443.31;5225793;28;20167;-69
2022/02/26 06:24:32;;;;;;;47.97;15.23;;;;;;;-3.07;100.00;103441.50;5225457;28;20028;-69
2022/02/26 06:27:03;;;;;;;39.92;15.65;;;;;;;-3.03;100.00;103448.47;5225618;28;20078;-69
2022/02/26 06:29:34;;;;;;;61.50;17.80;;;;;;;-2.99;100.00;103450.19;5225397;28;20537;-71
2022/02/26 06:32:05;;;;;;;47.45;16.42;;;;;;;-2.95;100.00;103448.41;5225665;28;20543;-69
2022/02/26 06:34:36;;;;;;;44.40;14.88;;;;;;;-2.96;100.00;103447.53;5225160;28;20294;-69
2022/02/26 06:37:07;;;;;;;53.92;17.40;;;;;;;-2.93;100.00;103452.75;5225509;28;20471;-69
2022/02/26 06:39:37;;;;;;;63.13;17.30;;;;;;;-2.90;100.00;103451.84;5225920;28;20021;-69
2022/02/26 06:42:07;;;;;;;44.55;16.00;;;;;;;-2.88;100.00;103452.69;5225134;28;20351;-69
2022/02/26 06:44:38;;;;;;;50.78;15.05;;;;;;;-2.88;100.00;103456.19;5225254;28;20103;-69
2022/02/26 06:47:08;;;;;;;43.70;16.17;;;;;;;-2.85;100.00;103457.94;5224530;28;20020;-69
2022/02/26 06:49:39;;;;;;;46.00;15.35;;;;;;;-2.79;100.00;103462.25;5225504;28;20508;-68
2022/02/26 06:52:09;;;;;;;39.83;14.95;;;;;;;-2.70;100.00;103460.38;5225190;28;20048;-69
2022/02/26 06:54:40;;;;;;;39.67;14.43;;;;;;;-2.58;100.00;103463.75;5224639;28;20390;-68
2022/02/26 06:57:11;;;;;;;40.85;15.57;;;;;;;-2.48;100.00;103461.00;5225064;28;20017;-69
2022/02/26 06:59:41;;;;;;;55.65;15.38;;;;;;;-2.36;100.00;103471.38;5224996;28;20029;-69
2022/02/26 07:02:11;;;;;;;49.08;16.00;;;;;;;-2.28;100.00;103458.13;5224778;28;20051;-69
2022/02/26 07:04:43;;;;;;;35.55;13.60;;;;;;;-2.20;100.00;103471.19;5224298;28;20112;-69
2022/02/26 07:07:13;;;;;;;49.38;15.10;;;;;;;-2.10;100.00;103473.66;5225189;28;20025;-71
2022/02/26 07:09:46;;;;;;;60.65;15.88;;;;;;;-2.00;100.00;103477.03;5225142;28;20033;-70
2022/02/26 07:12:16;;;;;;;46.05;13.82;;;;;;;-1.84;100.00;103481.19;5224549;28;20024;-69
2022/02/26 07:14:47;;;;;;;40.78;12.93;;;;;;;-1.54;100.00;103481.63;5224703;28;20033;-69
2022/02/26 07:17:18;;;;;;;46.03;14.45;;;;;;;-1.26;100.00;103481.16;5224334;28;20016;-68
2022/02/26 07:19:48;;;;;;;42.88;14.02;;;;;;;-1.04;100.00;103487.81;5223551;28;20079;-69
2022/02/26 07:22:19;;;;;;;32.95;11.50;;;;;;;-0.82;100.00;103483.88;5224344;28;20029;-69
2022/02/26 07:24:49;;;;;;;24.77;11.18;;;;;;;-0.62;100.00;103487.91;5224394;28;20021;-69
2022/02/26 07:27:20;;;;;;;47.17;12.25;;;;;;;-0.35;100.00;103494.41;5224517;28;20450;-69
2022/02/26 07:29:51;;;;;;;35.65;10.55;;;;;;;-0.13;100.00;103501.00;5224563;28;20031;-68
2022/02/26 07:32:22;;;;;;;39.30;12.05;;;;;;;0.10;100.00;103505.78;5224557;28;20024;-69
2022/02/26 07:34:52;;;;;;;32.08;10.68;;;;;;;0.29;100.00;103506.22;5224505;28;20082;-69
2022/02/26 07:37:23;;;;;;;34.90;11.05;;;;;;;0.34;100.00;103506.97;5224337;28;20429;-69
2022/02/26 07:39:54;;;;;;;38.30;11.73;;;;;;;0.48;100.00;103506.66;5224289;28;20108;-69
2022/02/26 07:42:26;;;;;;;32.85;11.73;;;;;;;0.71;100.00;103506.13;5223945;28;20108;-69
2022/02/26 07:44:57;;;;;;;42.88;12.07;;;;;;;1.07;100.00;103508.75;5223815;28;20021;-69
2022/02/26 07:47:27;;;;;;;34.63;13.95;;;;;;;1.34;100.00;103512.41;5224105;28;20021;-69
2022/02/26 07:49:58;;;;;;;37.60;13.15;;;;;;;1.52;100.00;103509.28;5224169;28;20028;-69
2022/02/26 07:52:31;;;;;;;32.13;13.02;;;;;;;1.91;100.00;103506.38;5223542;28;20112;-69
2022/02/26 07:55:04;;;;;;;28.80;12.45;;;;;;;2.40;100.00;103518.13;5223741;28;20455;-69
2022/02/26 07:57:35;;;;;;;31.00;13.18;;;;;;;2.75;100.00;103522.31;5224201;28;20048;-70
2022/02/26 08:00:06;;;;;;;33.22;12.90;;;;;;;2.89;100.00;103522.72;5224022;28;20055;-70
2022/02/26 08:02:36;;;;;;;28.45;12.93;;;;;;;3.23;100.00;103513.63;5223670;28;20036;-70
2022/02/26 08:05:07;;;;;;;31.00;12.50;;;;;;;3.42;100.00;103516.50;5223208;28;20021;-70
2022/02/26 08:07:38;;;;;;;25.67;11.48;;;;;;;3.31;100.00;103515.09;5223656;28;20457;-70
2022/02/26 08:10:08;;;;;;;24.05;11.73;;;;;;;3.36;100.00;103513.16;5223808;28;20021;-70
2022/02/26 08:12:40;;;;;;;27.38;11.60;;;;;;;3.32;100.00;103514.16;5223563;28;20064;-70
2022/02/26 08:15:10;;;;;;;35.70;12.52;;;;;;;3.52;100.00;103516.09;5223900;28;20037;-70
2022/02/26 08:17:44;;;;;;;36.85;15.48;;;;;;;3.62;100.00;103519.28;5223250;28;20051;-70
2022/02/26 08:20:16;;;;;;;37.03;15.15;;;;;;;3.99;100.00;103517.91;5223536;28;20025;-70
2022/02/26 08:22:47;;;;;;;35.78;13.43;;;;;;;4.55;100.00;103517.47;5223471;28;20017;-70
2022/02/26 08:25:18;;;;;;;34.05;12.75;;;;;;;4.69;100.00;103520.44;5223033;28;20056;-71
2022/02/26 08:27:49;;;;;;;37.22;13.18;;;;;;;4.73;100.00;103522.06;5223382;28;20075;-72
2022/02/26 08:30:20;;;;;;;28.95;12.90;;;;;;;4.78;100.00;103514.75;5222771;28;20514;-70
2022/02/26 08:32:50;;;;;;;30.17;13.02;;;;;;;5.05;100.00;103512.72;5223346;28;20450;-70
2022/02/26 08:35:21;;;;;;;38.55;14.25;;;;;;;5.30;100.00;103525.84;5221082;28;20071;-70
2022/02/26 08:37:51;;;;;;;34.95;14.05;;;;;;;5.34;100.00;103523.91;5223081;28;20028;-70
2022/02/26 08:40:22;;;;;;;29.42;13.13;;;;;;;5.29;100.00;103524.09;5223053;28;20571;-70
2022/02/26 08:42:53;;;;;;;36.25;13.63;;;;;;;5.30;100.00;103522.31;5222603;28;20171;-70
2022/02/26 08:45:23;;;;;;;43.25;14.00;;;;;;;5.58;100.00;103535.28;5222876;28;20056;-71
2022/02/26 08:47:53;;;;;;;31.75;13.07;;;;;;;5.88;100.00;103536.56;5222877;28;20449;-71
2022/02/26 08:50:24;;;;;;;33.85;12.93;;;;;;;5.86;100.00;103538.41;5223187;28;20060;-70
2022/02/26 08:52:54;;;;;;;37.50;13.75;;;;;;;5.88;100.00;103539.22;5222644;28;20021;-70
2022/02/26 08:55:25;;;;;;;35.40;12.25;;;;;;;5.86;100.00;103541.06;5222251;28;20041;-70
2022/02/26 08:57:56;;;;;;;32.58;12.27;;;;;;;5.84;100.00;103540.28;5222834;28;20071;-70
2022/02/26 09:00:26;;;;;;;34.97;11.90;;;;;;;5.77;100.00;103551.28;5223335;28;20013;-70
2022/02/26 09:02:57;;;;;;;28.38;12.75;;;;;;;6.20;100.00;103547.56;5222587;28;20397;-70
2022/02/26 09:05:28;;;;;;;31.02;12.48;;;;;;;6.01;100.00;103552.00;5222194;28;20021;-70
2022/02/26 09:07:58;;;;;;;30.00;11.55;;;;;;;6.34;100.00;103552.25;5222434;28;20029;-71
2022/02/26 09:10:29;;;;;;;27.77;9.20;;;;;;;6.26;100.00;103551.72;5222499;28;20048;-70
2022/02/26 09:12:59;;;;;;;31.75;11.07;;;;;;;5.62;100.00;103552.84;5222220;28;20110;-70
2022/02/26 09:15:30;;;;;;;33.92;11.43;;;;;;;6.02;100.00;103551.94;5222132;28;20402;-71
2022/02/26 09:18:00;;;;;;;31.45;11.93;;;;;;;6.25;100.00;103560.66;5222722;28;20488;-71
2022/02/26 09:20:31;;;;;;;27.25;10.88;;;;;;;6.44;100.00;103550.88;5222029;28;20815;-70
2022/02/26 09:23:02;;;;;;;30.83;10.32;;;;;;;6.77;100.00;103552.81;5222043;28;20486;-70
2022/02/26 09:25:32;;;;;;;25.95;10.75;;;;;;;6.83;100.00;103563.19;5221711;28;20025;-71
2022/02/26 09:28:03;;;;;;;33.20;9.82;;;;;;;7.18;100.00;103556.13;5222242;28;20024;-70
2022/02/26 09:30:33;;;;;;;30.60;10.35;;;;;;;7.40;100.00;103562.06;5221843;28;20028;-70
2022/02/26 09:33:04;;;;;;;52.90;11.73;;;;;;;7.08;100.00;103553.03;5221831;28;20120;-70
2022/02/26 09:35:35;;;;;;;35.20;10.80;;;;;;;7.02;100.00;103550.66;5221874;28;20142;-70
2022/02/26 09:38:06;;;;;;;40.75;11.50;;;;;;;6.69;100.00;103543.41;5221899;28;20541;-70
2022/02/26 09:40:37;;;;;;;38.85;11.25;;;;;;;6.92;100.00;103549.38;5222059;28;20488;-71
2022/02/26 09:43:07;;;;;;;28.10;10.45;;;;;;;7.32;100.00;103556.25;5220502;28;20055;-70
2022/02/26 09:45:38;;;;;;;36.33;10.98;;;;;;;7.29;100.00;103555.56;5220852;28;20031;-71
2022/02/26 09:48:08;;;;;;;30.27;11.07;;;;;;;7.36;100.00;103554.28;5221080;28;20055;-70
2022/02/26 09:50:40;;;;;;;36.45;11.98;;;;;;;7.55;100.00;103540.84;5220809;28;20025;-70
2022/02/26 09:53:12;;;;;;;30.25;10.43;;;;;;;7.53;100.00;103539.13;5221540;28;20053;-70
2022/02/26 09:55:44;;;;;;;35.40;11.07;;;;;;;7.57;100.00;103536.25;5221032;28;20391;-71
2022/02/26 09:58:15;;;;;;;33.20;9.60;;;;;;;7.82;100.00;103547.38;5221954;28;20108;-70
2022/02/26 10:00:47;;;;;;;32.22;10.02;;;;;;;7.32;100.00;103547.38;5220604;28;20104;-70
2022/02/26 10:03:31;;;;;;;34.47;10.07;;;;;;;7.40;100.00;103540.69;5221694;28;20059;-71
2022/02/26 10:06:04;;;;;;;37.78;9.73;;;;;;;7.46;100.00;103534.16;5220890;28;20072;-70
2022/02/26 10:08:38;;;;;;;29.33;10.32;;;;;;;7.43;100.00;103540.53;5221868;28;20104;-70
2022/02/26 10:11:28;;;;;;;26.70;9.50;;;;;;;7.83;100.00;103535.75;5208569;28;20036;-71
2022/02/26 10:14:12;;;;;;;25.55;9.23;;;;;;;7.66;100.00;103531.31;5221426;28;20484;-71
2022/02/26 10:16:46;;;;;;;28.73;9.10;;;;;;;7.24;100.00;103524.63;5221126;28;20498;-71
2022/02/26 10:19:19;;;;;;;37.67;8.30;;;;;;;7.49;100.00;103531.34;5209241;28;20025;-71
2022/02/26 10:21:51;;;;;;;26.17;8.13;;;;;;;7.06;100.00;103538.03;5221563;28;20017;-71
2022/02/26 10:24:22;;;;;;;25.23;8.48;;;;;;;7.44;100.00;103522.72;5221249;28;20029;-71
2022/02/26 10:27:00;;;;;;;31.23;7.90;;;;;;;7.47;100.00;103534.06;5221334;28;20102;-71
2022/02/26 10:29:36;;;;;;;25.63;7.95;;;;;;;7.11;100.00;103527.97;5221761;28;20078;-71
2022/02/26 10:32:08;;;;;;;33.05;8.55;;;;;;;6.69;100.00;103523.88;5221424;28;20078;-71
2022/02/26 10:34:41;;;;;;;32.75;9.10;;;;;;;6.52;100.00;103530.00;5221278;28;20502;-70
2022/02/26 10:37:28;;;;;;;33.90;8.95;;;;;;;6.64;100.00;103525.91;5221395;28;20032;-71
2022/02/26 10:40:00;;;;;;;36.72;9.68;;;;;;;6.74;100.00;103517.38;5221601;28;20035;-71
2022/02/26 10:42:33;;;;;;;35.65;7.82;;;;;;;6.76;100.00;103525.28;5221345;28;20020;-71
2022/02/26 10:45:09;;;;;;;21.92;7.78;;;;;;;6.83;100.00;103517.81;5221075;28;20048;-71
2022/02/26 10:47:42;;;;;;;29.02;8.40;;;;;;;7.10;100.00;103513.78;5219961;28;20433;-71
2022/02/26 10:50:15;;;;;;;29.58;8.70;;;;;;;7.41;100.00;103513.03;5221397;28;20397;-71
2022/02/26 10:53:05;;;;;;;23.80;8.02;;;;;;;7.97;100.00;103511.78;5221063;28;20051;-71
2022/02/26 10:56:05;;;;;;;23.58;7.25;;;;;;;7.22;100.00;103506.94;5220745;28;20040;-71
2022/02/26 10:58:36;;;;;;;21.30;7.50;;;;;;;7.26;100.00;103505.81;5222232;28;20189;-71
2022/02/26 11:01:09;;;;;;;28.88;8.07;;;;;;;7.63;100.00;103506.53;5225023;28;20028;-71
2022/02/26 11:03:40;;;;;;;26.67;6.40;;;;;;;7.21;100.00;103502.53;5224980;28;20086;-71
2022/02/26 11:06:12;;;;;;;31.17;6.57;;;;;;;7.36;100.00;103512.41;5224743;28;20432;-71
2022/02/26 11:08:44;;;;;;;31.67;6.07;;;;;;;7.19;100.00;103494.63;5224658;28;20134;-71
2022/02/26 11:11:14;;;;;;;15.70;5.03;;;;;;;7.33;100.00;103493.91;5225264;28;20545;-71
2022/02/26 11:13:48;;;;;;;28.77;5.07;;;;;;;7.48;100.00;103494.88;5224827;28;20167;-71
2022/02/26 11:16:20;;;;;;;19.25;4.90;;;;;;;6.88;100.00;103502.47;5224725;28;20024;-71
2022/02/26 11:18:53;;;;;;;9.93;4.25;;;;;;;7.01;100.00;103496.41;5225001;28;20110;-71
2022/02/26 11:21:24;;;;;;;16.30;4.90;;;;;;;7.26;100.00;103482.66;5224476;28;20021;-71
2022/02/26 11:23:55;;;;;;;19.95;4.38;;;;;;;7.39;100.00;103482.88;5224901;28;20299;-71
2022/02/26 11:26:26;;;;;;;22.45;5.57;;;;;;;7.52;100.00;103478.59;5224589;28;20072;-71